Aérodrome :
LOGIN :

S'inscrire | Disclaimer

   EN    FR    IT 

 










Légende :    VFR   VFR Marginal   IFR   IFR Intensif   IFR Très Intensif
Visi : 
Plafond : 
>= 8 km
>= 3000ft
5 à 8 km
1000 à 3000 ft
1500m à 5 km
500 à 1000 ft
800 à 1500m
200 à 500 ft
< 800m
< 200 ft
Symboles :   Orages  Brouillard  Fortes neiges  Fortes précipitations  Vent > 20 kt
SIGMETs :   Divers  Orages  Givrage  Turbulence  Onde Orograph.  Cendres Volcan.







- Altitude de l'aérodrome : 485 ft
- Code IATA : QSA


LELL - Sabadell

DERNIER METAR :
  • 210030Z AUTO 25008KT 220V300 9999 NCD 13/07 Q1016

METARs EXPIRÉS :
  • 210000Z AUTO 25006KT 210V290 9999 NCD 13/07 Q1016
  • 202330Z AUTO 22005KT 160V270 9999 NCD 14/07 Q1016
  • 202300Z AUTO 23006KT CAVOK 13/07 Q1016
  • 202230Z AUTO 26017KT CAVOK 14/07 Q1016
  • 202200Z AUTO 26013KT CAVOK 14/06 Q1016

TAF TAF LELL
Valide du 20 à 15h jusqu'au 21 à 15h UTC


201400Z 2015/2115 27015KT CAVOK TX20/2113Z TN10/2107Z
TEMPO 2022/2103 28020G30KT
Pas de NOTAMs connus pour ce terrain.



MET'MAP, la Météo Aéronautique d'un coup d'oeil ! - Copyright ORBIFLY Décembre 2007 - Disclaimer

ORBIFLY MET'MAP TEAM :

Programmation & Développement : Alexandra Zaïnal
Conception & Développement : Baudouin d'Aumeries
Co-Programmation & Développement : Marc-Olivier Méhu
Soutien technique & logistique : Manuel Goepfert

Contact : metmap@orbifly.com




SOURCES & CREDITS :

   NOAA